Time;durP1;ratioP1;P1;durP2;ratioP2;P2;SDS_P1;SDS_P2;PMS_P1;PMS_P2;Temp;Humidity;BMP_temperature;BMP_pressure;BME280_temperature;BME280_humidity;BME280_pressure;Samples;Min_cycle;Max_cycle;Signal;HPM_P1;HPM_P2
2023/12/22 00:01:22;;;;;;;12.55;2.40;;;;;;;;;;4837784;29;20046;-80
2023/12/22 00:03:49;;;;;;;10.18;2.67;;;;;;;;;;4837824;29;20053;-82
2023/12/22 00:06:15;;;;;;;17.00;3.25;;;;;;;;;;4836160;29;20049;-80
2023/12/22 00:08:42;;;;;;;15.30;3.45;;;;;;;;;;4836728;29;20424;-82
2023/12/22 00:11:08;;;;;;;15.32;3.10;;;;;;;;;;4836715;29;20057;-80
2023/12/22 00:13:34;;;;;;;14.25;2.83;;;;;;;;;;4834715;29;20497;-81
2023/12/22 00:16:00;;;;;;;19.17;3.15;;;;;;;;;;4826936;29;20560;-81
2023/12/22 00:18:26;;;;;;;11.35;3.58;;;;;;;;;;4837253;29;20053;-82
2023/12/22 00:20:53;;;;;;;13.07;2.42;;;;;;;;;;4837401;29;20057;-81
2023/12/22 00:23:19;;;;;;;12.55;2.88;;;;;;;;;;4834826;29;20054;-80
2023/12/22 00:25:45;;;;;;;15.43;3.35;;;;;;;;;;4845427;29;20046;-81
2023/12/22 00:28:11;;;;;;;20.88;3.53;;;;;;;;;;4837703;29;20114;-80
2023/12/22 00:30:37;;;;;;;13.00;3.08;;;;;;;;;;4837664;29;20137;-81
2023/12/22 00:33:03;;;;;;;20.83;3.58;;;;;;;;;;4834965;29;20060;-80
2023/12/22 00:35:29;;;;;;;13.77;3.53;;;;;;;;;;4839644;29;20060;-81
2023/12/22 00:37:55;;;;;;;16.02;3.30;;;;;;;;;;4822198;29;20339;-81
2023/12/22 00:40:21;;;;;;;13.18;2.90;;;;;;;;;;4819615;29;20069;-82
2023/12/22 00:42:47;;;;;;;13.73;3.10;;;;;;;;;;4836455;29;20157;-81
2023/12/22 00:45:13;;;;;;;12.77;2.75;;;;;;;;;;4823882;29;20054;-81
2023/12/22 00:47:39;;;;;;;15.77;3.47;;;;;;;;;;4837350;29;20057;-81
2023/12/22 00:50:05;;;;;;;12.75;3.25;;;;;;;;;;4833815;29;20061;-81
2023/12/22 00:52:31;;;;;;;10.35;2.17;;;;;;;;;;4835336;29;20501;-82
2023/12/22 00:54:57;;;;;;;8.45;2.15;;;;;;;;;;4840745;29;20050;-80
2023/12/22 00:57:25;;;;;;;12.50;2.42;;;;;;;;;;4836645;29;20084;-80
2023/12/22 00:59:51;;;;;;;11.38;1.95;;;;;;;;;;4837168;29;20085;-80
2023/12/22 01:02:17;;;;;;;12.18;3.22;;;;;;;;;;4837624;29;20049;-81
2023/12/22 01:04:43;;;;;;;9.38;3.25;;;;;;;;;;4847130;29;20050;-81
2023/12/22 01:07:09;;;;;;;9.82;2.15;;;;;;;;;;4830206;29;20049;-81
2023/12/22 01:09:37;;;;;;;13.68;2.83;;;;;;;;;;4840027;29;20049;-81
2023/12/22 01:12:03;;;;;;;14.52;3.45;;;;;;;;;;4840152;29;20058;-81
2023/12/22 01:14:30;;;;;;;18.13;3.15;;;;;;;;;;4839561;29;20064;-81
2023/12/22 01:16:56;;;;;;;13.02;3.00;;;;;;;;;;4839714;29;20058;-80
2023/12/22 01:19:22;;;;;;;14.70;2.47;;;;;;;;;;4834365;29;20133;-82
2023/12/22 01:21:49;;;;;;;9.88;2.10;;;;;;;;;;4839075;29;20056;-81
2023/12/22 01:24:15;;;;;;;20.40;3.78;;;;;;;;;;4831197;29;20042;-80
2023/12/22 01:26:41;;;;;;;9.07;2.40;;;;;;;;;;4836556;29;20099;-80
2023/12/22 01:29:07;;;;;;;15.10;3.35;;;;;;;;;;4827506;29;20072;-80
2023/12/22 01:31:33;;;;;;;14.02;3.00;;;;;;;;;;4833200;29;20073;-80
2023/12/22 01:33:59;;;;;;;16.83;3.63;;;;;;;;;;4838128;29;20485;-81
2023/12/22 01:36:25;;;;;;;8.90;2.45;;;;;;;;;;4824312;29;20054;-81
2023/12/22 01:38:51;;;;;;;12.73;2.33;;;;;;;;;;4838750;29;20062;-80
2023/12/22 01:41:17;;;;;;;18.15;3.05;;;;;;;;;;4840049;29;20060;-80
2023/12/22 01:43:43;;;;;;;11.98;3.55;;;;;;;;;;4839035;29;20366;-81
2023/12/22 01:46:10;;;;;;;13.05;2.92;;;;;;;;;;4838422;29;20068;-81
2023/12/22 01:48:36;;;;;;;9.82;2.33;;;;;;;;;;4838202;29;20114;-80
2023/12/22 01:51:03;;;;;;;13.75;2.30;;;;;;;;;;4840532;29;20101;-81
2023/12/22 01:53:29;;;;;;;9.35;2.15;;;;;;;;;;4837845;29;20050;-82
2023/12/22 01:55:56;;;;;;;14.65;2.38;;;;;;;;;;4838362;29;20058;-81
2023/12/22 01:58:25;;;;;;;7.57;1.75;;;;;;;;;;4853923;29;20076;-81
2023/12/22 02:00:53;;;;;;;7.95;1.70;;;;;;;;;;4846116;29;20062;-80
2023/12/22 02:03:19;;;;;;;12.65;2.88;;;;;;;;;;4838197;29;20118;-80
2023/12/22 02:05:45;;;;;;;9.95;2.13;;;;;;;;;;4839524;29;20120;-81
2023/12/22 02:08:12;;;;;;;16.55;2.47;;;;;;;;;;4837983;29;20045;-81
2023/12/22 02:10:38;;;;;;;10.80;2.60;;;;;;;;;;4839515;29;20056;-82
2023/12/22 02:13:09;;;;;;;15.05;3.08;;;;;;;;;;4838524;29;20655;-80
2023/12/22 02:15:35;;;;;;;12.63;2.67;;;;;;;;;;4852244;29;20118;-81
2023/12/22 02:18:08;;;;;;;14.82;3.13;;;;;;;;;;4838636;29;20049;-81
2023/12/22 02:20:35;;;;;;;14.88;2.55;;;;;;;;;;4835115;29;20572;-81
2023/12/22 02:23:01;;;;;;;15.13;2.78;;;;;;;;;;4837299;29;20077;-81
2023/12/22 02:25:27;;;;;;;12.63;2.95;;;;;;;;;;4838475;29;20092;-80
2023/12/22 02:27:56;;;;;;;23.77;3.65;;;;;;;;;;4837003;29;20053;-81
2023/12/22 02:30:32;;;;;;;12.45;3.00;;;;;;;;;;4837785;29;20050;-81
2023/12/22 02:33:03;;;;;;;15.38;3.33;;;;;;;;;;4837729;29;20089;-81
2023/12/22 02:35:31;;;;;;;15.82;3.47;;;;;;;;;;4837746;29;20060;-81
2023/12/22 02:37:57;;;;;;;19.75;3.10;;;;;;;;;;4837248;29;20421;-80
2023/12/22 02:40:24;;;;;;;18.45;3.97;;;;;;;;;;4834685;29;20137;-81
2023/12/22 02:42:50;;;;;;;16.95;3.03;;;;;;;;;;4831510;29;20050;-81
2023/12/22 02:45:17;;;;;;;14.40;3.15;;;;;;;;;;4837195;29;20049;-80
2023/12/22 02:47:43;;;;;;;12.40;2.55;;;;;;;;;;4836283;29;20095;-81
2023/12/22 02:50:10;;;;;;;18.20;2.88;;;;;;;;;;4834243;29;20042;-81
2023/12/22 02:52:36;;;;;;;13.20;2.60;;;;;;;;;;4836474;29;20054;-81
2023/12/22 02:55:02;;;;;;;13.20;2.20;;;;;;;;;;4837988;29;20521;-81
2023/12/22 02:57:28;;;;;;;7.20;2.08;;;;;;;;;;4851720;29;20457;-81
2023/12/22 02:59:54;;;;;;;8.40;1.95;;;;;;;;;;4838196;29;20054;-80
2023/12/22 03:02:20;;;;;;;9.60;2.35;;;;;;;;;;4836346;29;20054;-81
2023/12/22 03:04:46;;;;;;;10.80;2.00;;;;;;;;;;4836218;29;20398;-82
2023/12/22 03:07:13;;;;;;;10.55;2.22;;;;;;;;;;4838065;29;20065;-81
2023/12/22 03:09:39;;;;;;;6.18;1.92;;;;;;;;;;4837489;29;20064;-80
2023/12/22 03:12:06;;;;;;;8.75;1.52;;;;;;;;;;4837010;29;20148;-81
2023/12/22 03:14:33;;;;;;;7.45;1.55;;;;;;;;;;4829268;29;20054;-81
2023/12/22 03:17:02;;;;;;;7.57;1.98;;;;;;;;;;4849858;29;20069;-81
2023/12/22 03:19:30;;;;;;;6.50;2.05;;;;;;;;;;4838356;29;20046;-81
2023/12/22 03:21:56;;;;;;;9.88;1.80;;;;;;;;;;4836574;29;20803;-82
2023/12/22 03:24:23;;;;;;;6.57;1.63;;;;;;;;;;4831819;29;20050;-81
2023/12/22 03:26:49;;;;;;;6.70;1.35;;;;;;;;;;4829542;29;20068;-81
2023/12/22 03:29:15;;;;;;;9.18;1.70;;;;;;;;;;4838011;29;20085;-81
2023/12/22 03:31:41;;;;;;;6.30;1.30;;;;;;;;;;4838480;29;20057;-81
2023/12/22 03:34:07;;;;;;;7.60;1.63;;;;;;;;;;4837192;29;20081;-81
2023/12/22 03:36:34;;;;;;;12.63;2.20;;;;;;;;;;4836494;29;20060;-80
2023/12/22 03:39:00;;;;;;;8.05;2.22;;;;;;;;;;4837570;29;20160;-81
2023/12/22 03:41:26;;;;;;;10.13;2.25;;;;;;;;;;4837633;29;20058;-80
2023/12/22 03:43:52;;;;;;;9.77;2.20;;;;;;;;;;4837342;29;20428;-81
2023/12/22 03:46:18;;;;;;;12.73;1.70;;;;;;;;;;4836335;29;20053;-81
2023/12/22 03:48:44;;;;;;;10.63;2.00;;;;;;;;;;4836916;29;20050;-81
2023/12/22 03:51:14;;;;;;;7.70;2.55;;;;;;;;;;4836637;29;20102;-81
2023/12/22 03:53:40;;;;;;;7.50;1.90;;;;;;;;;;4837033;29;20080;-80
2023/12/22 03:56:08;;;;;;;7.85;1.52;;;;;;;;;;4836343;29;20408;-80
2023/12/22 03:58:34;;;;;;;14.60;2.17;;;;;;;;;;4835907;29;20050;-80
2023/12/22 04:01:00;;;;;;;9.80;2.15;;;;;;;;;;4837523;29;20397;-80
2023/12/22 04:03:26;;;;;;;14.65;3.10;;;;;;;;;;4836325;29;20081;-81
2023/12/22 04:05:52;;;;;;;9.02;2.10;;;;;;;;;;4828769;29;20581;-80
2023/12/22 04:08:20;;;;;;;13.80;1.70;;;;;;;;;;4835508;29;20049;-80
2023/12/22 04:10:46;;;;;;;10.00;2.53;;;;;;;;;;4835020;29;20064;-80
2023/12/22 04:13:12;;;;;;;10.23;1.90;;;;;;;;;;4851069;29;20050;-81
2023/12/22 04:15:38;;;;;;;10.27;2.30;;;;;;;;;;4849066;29;20130;-80
2023/12/22 04:18:04;;;;;;;9.63;1.70;;;;;;;;;;4845861;29;20109;-81
2023/12/22 04:20:31;;;;;;;12.50;2.53;;;;;;;;;;4833269;29;20053;-80
2023/12/22 04:22:57;;;;;;;14.90;2.72;;;;;;;;;;4829862;29;20050;-80
2023/12/22 04:25:24;;;;;;;11.02;2.25;;;;;;;;;;4832498;29;20766;-80
2023/12/22 04:27:50;;;;;;;12.75;3.20;;;;;;;;;;4836992;29;20050;-80
2023/12/22 04:30:16;;;;;;;15.52;3.03;;;;;;;;;;4835759;29;20455;-81
2023/12/22 04:32:42;;;;;;;15.43;3.08;;;;;;;;;;4836743;29;20500;-80
2023/12/22 04:35:08;;;;;;;18.17;2.83;;;;;;;;;;4836937;29;20069;-80
2023/12/22 04:37:35;;;;;;;15.63;2.83;;;;;;;;;;4837377;29;20057;-80
2023/12/22 04:40:01;;;;;;;8.30;2.45;;;;;;;;;;4841217;29;20128;-80
2023/12/22 04:42:27;;;;;;;13.73;2.53;;;;;;;;;;4840048;29;20520;-80
2023/12/22 04:44:53;;;;;;;17.50;2.97;;;;;;;;;;4841057;29;20826;-80
2023/12/22 04:47:19;;;;;;;11.43;2.90;;;;;;;;;;4839387;29;20141;-80
2023/12/22 04:49:45;;;;;;;13.82;2.40;;;;;;;;;;4854449;29;20450;-80
2023/12/22 04:52:11;;;;;;;9.93;2.28;;;;;;;;;;4839577;29;20527;-82
2023/12/22 04:54:38;;;;;;;15.50;3.05;;;;;;;;;;4840265;29;20042;-81
2023/12/22 04:57:04;;;;;;;14.75;2.83;;;;;;;;;;4840732;29;20050;-81
2023/12/22 04:59:30;;;;;;;8.20;2.00;;;;;;;;;;4841005;29;20050;-81
2023/12/22 05:01:56;;;;;;;12.48;3.22;;;;;;;;;;4840227;29;20054;-80
2023/12/22 05:04:22;;;;;;;13.48;2.70;;;;;;;;;;4840008;29;20042;-80
2023/12/22 05:06:49;;;;;;;13.05;3.22;;;;;;;;;;4839827;29;20046;-81
2023/12/22 05:09:16;;;;;;;11.05;2.75;;;;;;;;;;4839125;29;20050;-82
2023/12/22 05:11:42;;;;;;;12.93;2.90;;;;;;;;;;4833298;29;20061;-79
2023/12/22 05:14:08;;;;;;;19.63;3.08;;;;;;;;;;4839172;29;20053;-80
2023/12/22 05:16:34;;;;;;;9.77;2.08;;;;;;;;;;4854131;29;20420;-80
2023/12/22 05:19:00;;;;;;;10.43;1.95;;;;;;;;;;4839608;29;20053;-80
2023/12/22 05:21:27;;;;;;;11.52;2.08;;;;;;;;;;4832107;29;20091;-80
2023/12/22 05:23:54;;;;;;;13.57;2.53;;;;;;;;;;4822276;29;20695;-80
2023/12/22 05:26:20;;;;;;;10.48;2.70;;;;;;;;;;4835797;29;20054;-80
2023/12/22 05:28:47;;;;;;;7.65;2.15;;;;;;;;;;4839576;29;20073;-81
2023/12/22 05:31:13;;;;;;;14.70;2.58;;;;;;;;;;4838109;29;20072;-80
2023/12/22 05:33:39;;;;;;;14.63;2.60;;;;;;;;;;4839370;29;20132;-80
2023/12/22 05:36:05;;;;;;;10.85;2.35;;;;;;;;;;4838674;29;20069;-80
2023/12/22 05:38:31;;;;;;;12.68;2.10;;;;;;;;;;4840088;29;20058;-80
2023/12/22 05:40:57;;;;;;;13.57;2.28;;;;;;;;;;4838306;29;20082;-80
2023/12/22 05:43:23;;;;;;;13.18;2.30;;;;;;;;;;4845115;29;20042;-80
2023/12/22 05:45:49;;;;;;;9.75;2.40;;;;;;;;;;4837482;29;20474;-80
2023/12/22 05:48:15;;;;;;;18.70;3.42;;;;;;;;;;4838656;29;20058;-80
2023/12/22 05:50:41;;;;;;;7.28;2.00;;;;;;;;;;4837973;29;20046;-80
2023/12/22 05:53:07;;;;;;;14.80;3.20;;;;;;;;;;4838313;29;20098;-80
2023/12/22 05:55:33;;;;;;;14.57;2.88;;;;;;;;;;4839328;29;20087;-80
2023/12/22 05:57:59;;;;;;;15.95;2.47;;;;;;;;;;4839289;29;20109;-80
2023/12/22 06:00:26;;;;;;;13.48;3.63;;;;;;;;;;4838884;29;20054;-80
2023/12/22 06:02:52;;;;;;;7.03;1.95;;;;;;;;;;4840024;29;20184;-80
2023/12/22 06:05:18;;;;;;;19.20;3.15;;;;;;;;;;4839477;29;20053;-80
2023/12/22 06:07:44;;;;;;;12.90;2.60;;;;;;;;;;4837704;29;20081;-80
2023/12/22 06:10:11;;;;;;;14.18;2.70;;;;;;;;;;4837428;29;20049;-80
2023/12/22 06:12:37;;;;;;;10.57;2.45;;;;;;;;;;4837331;29;20045;-81
2023/12/22 06:15:03;;;;;;;11.80;2.58;;;;;;;;;;4838581;29;20104;-81
2023/12/22 06:17:29;;;;;;;15.30;3.03;;;;;;;;;;4836719;29;20428;-80
2023/12/22 06:19:55;;;;;;;14.52;2.45;;;;;;;;;;4838820;29;20500;-80
2023/12/22 06:22:22;;;;;;;12.95;2.65;;;;;;;;;;4836336;29;20141;-80
2023/12/22 06:24:49;;;;;;;17.63;3.53;;;;;;;;;;4836949;29;20089;-80
2023/12/22 06:27:15;;;;;;;10.45;2.13;;;;;;;;;;4827064;29;20111;-80
2023/12/22 06:29:41;;;;;;;14.90;3.00;;;;;;;;;;4834912;29;20458;-80
2023/12/22 06:32:07;;;;;;;11.43;2.28;;;;;;;;;;4836768;29;20148;-80
2023/12/22 06:34:33;;;;;;;10.75;2.67;;;;;;;;;;4837009;29;20505;-81
2023/12/22 06:36:59;;;;;;;11.13;2.08;;;;;;;;;;4837477;29;20102;-80
2023/12/22 06:39:25;;;;;;;12.15;2.70;;;;;;;;;;4820546;29;20073;-80
2023/12/22 06:41:51;;;;;;;12.63;2.00;;;;;;;;;;4826728;29;20053;-80
2023/12/22 06:44:17;;;;;;;9.63;2.30;;;;;;;;;;4837724;29;20768;-79
2023/12/22 06:46:43;;;;;;;9.57;2.22;;;;;;;;;;4834036;29;20129;-80
2023/12/22 06:49:09;;;;;;;11.52;2.25;;;;;;;;;;4855719;29;20404;-80
2023/12/22 06:51:35;;;;;;;11.30;2.38;;;;;;;;;;4839097;29;20050;-80
2023/12/22 06:54:04;;;;;;;16.00;3.60;;;;;;;;;;4835994;29;20081;-79
2023/12/22 06:56:31;;;;;;;12.75;2.75;;;;;;;;;;4834861;29;20090;-79
2023/12/22 06:58:57;;;;;;;13.75;2.45;;;;;;;;;;4819047;29;20243;-79
2023/12/22 07:01:33;;;;;;;13.68;2.22;;;;;;;;;;4834992;29;20046;-79
2023/12/22 07:04:00;;;;;;;10.38;2.13;;;;;;;;;;4836829;29;20052;-80
2023/12/22 07:06:28;;;;;;;10.40;2.10;;;;;;;;;;4852575;29;20057;-79
2023/12/22 07:09:12;;;;;;;12.30;2.63;;;;;;;;;;4852358;29;20567;-80
2023/12/22 07:11:42;;;;;;;15.30;2.40;;;;;;;;;;4838062;29;20136;-80
2023/12/22 07:14:08;;;;;;;11.00;3.03;;;;;;;;;;4831377;29;20047;-79
2023/12/22 07:16:34;;;;;;;11.15;1.88;;;;;;;;;;4837809;29;20060;-80
2023/12/22 07:19:00;;;;;;;12.68;2.70;;;;;;;;;;4838544;29;20046;-80
2023/12/22 07:21:26;;;;;;;14.40;2.20;;;;;;;;;;4838253;29;20085;-80
2023/12/22 07:23:52;;;;;;;13.70;3.10;;;;;;;;;;4836440;29;20046;-79
2023/12/22 07:26:18;;;;;;;9.98;2.20;;;;;;;;;;4838031;29;20983;-79
2023/12/22 07:28:44;;;;;;;12.88;2.65;;;;;;;;;;4838086;29;20098;-79
2023/12/22 07:31:10;;;;;;;12.80;2.45;;;;;;;;;;4848517;29;20041;-81
2023/12/22 07:33:36;;;;;;;13.38;2.35;;;;;;;;;;4841201;29;20114;-81
2023/12/22 07:36:02;;;;;;;16.83;2.88;;;;;;;;;;4820339;29;20430;-82
2023/12/22 07:38:28;;;;;;;14.68;2.33;;;;;;;;;;4833392;29;20409;-82
2023/12/22 07:40:55;;;;;;;10.82;2.33;;;;;;;;;;4825778;29;20160;-81
2023/12/22 07:43:21;;;;;;;13.85;2.83;;;;;;;;;;4835341;29;20098;-81
2023/12/22 07:45:47;;;;;;;12.95;3.00;;;;;;;;;;4827726;29;20062;-81
2023/12/22 07:48:14;;;;;;;11.75;2.13;;;;;;;;;;4834837;29;20509;-80
2023/12/22 07:50:42;;;;;;;12.20;2.67;;;;;;;;;;4836115;29;20053;-80
2023/12/22 07:53:08;;;;;;;13.10;2.58;;;;;;;;;;4835738;29;20111;-81
2023/12/22 07:55:34;;;;;;;9.45;2.20;;;;;;;;;;4834964;29;20054;-80
2023/12/22 07:58:00;;;;;;;10.18;2.28;;;;;;;;;;4836882;29;20042;-81
2023/12/22 08:00:26;;;;;;;14.18;3.03;;;;;;;;;;4832303;29;20692;-81
2023/12/22 08:02:52;;;;;;;13.88;2.97;;;;;;;;;;4835111;29;20060;-81
2023/12/22 08:05:19;;;;;;;15.77;2.70;;;;;;;;;;4835218;29;20073;-81
2023/12/22 08:07:45;;;;;;;10.60;2.13;;;;;;;;;;4819355;29;20114;-81
2023/12/22 08:10:11;;;;;;;14.65;2.83;;;;;;;;;;4836183;29;20781;-83
2023/12/22 08:12:37;;;;;;;13.05;2.83;;;;;;;;;;4836012;29;20073;-81
2023/12/22 08:15:03;;;;;;;13.57;3.00;;;;;;;;;;4837418;29;20053;-81
2023/12/22 08:17:29;;;;;;;17.45;3.22;;;;;;;;;;4837544;29;20129;-81
2023/12/22 08:19:56;;;;;;;13.23;2.83;;;;;;;;;;4837318;29;20204;-81
2023/12/22 08:22:22;;;;;;;14.82;3.22;;;;;;;;;;4837350;29;20095;-82
2023/12/22 08:24:51;;;;;;;24.27;2.90;;;;;;;;;;4836285;29;20042;-81
2023/12/22 08:27:17;;;;;;;11.82;2.50;;;;;;;;;;4837181;29;20050;-82
2023/12/22 08:29:44;;;;;;;15.77;3.17;;;;;;;;;;4836396;29;20759;-81
2023/12/22 08:32:10;;;;;;;13.10;2.47;;;;;;;;;;4822968;29;20058;-81
2023/12/22 08:34:36;;;;;;;15.60;3.22;;;;;;;;;;4819119;29;20070;-81
2023/12/22 08:37:02;;;;;;;15.30;2.80;;;;;;;;;;4818990;29;20654;-81
2023/12/22 08:39:29;;;;;;;11.00;1.90;;;;;;;;;;4832812;29;20062;-81
2023/12/22 08:41:55;;;;;;;8.73;1.55;;;;;;;;;;4818827;29;20475;-82
2023/12/22 08:44:21;;;;;;;15.52;2.25;;;;;;;;;;4818282;29;20161;-81
2023/12/22 08:46:47;;;;;;;10.60;1.95;;;;;;;;;;4832543;29;20136;-83
2023/12/22 08:49:13;;;;;;;4.82;1.45;;;;;;;;;;4837389;29;20361;-81
2023/12/22 08:51:39;;;;;;;6.35;1.42;;;;;;;;;;4837042;29;20520;-81
2023/12/22 08:54:05;;;;;;;5.88;1.30;;;;;;;;;;4836850;29;20765;-81
2023/12/22 08:56:31;;;;;;;8.48;1.80;;;;;;;;;;4821072;29;20110;-81
2023/12/22 08:58:58;;;;;;;4.65;1.23;;;;;;;;;;4837092;29;20098;-81
2023/12/22 09:01:24;;;;;;;7.10;1.23;;;;;;;;;;4837276;29;20053;-81
2023/12/22 09:03:50;;;;;;;4.50;1.52;;;;;;;;;;4837432;29;20046;-81
2023/12/22 09:06:20;;;;;;;5.28;1.83;;;;;;;;;;4836746;29;20543;-81
2023/12/22 09:08:46;;;;;;;5.18;1.80;;;;;;;;;;4835331;29;20106;-81
2023/12/22 09:11:14;;;;;;;3.03;1.30;;;;;;;;;;4828297;29;20057;-81
2023/12/22 09:13:41;;;;;;;3.85;0.98;;;;;;;;;;4818978;29;20107;-81
2023/12/22 09:16:07;;;;;;;2.72;1.05;;;;;;;;;;4817720;29;20059;-81
2023/12/22 09:18:34;;;;;;;5.03;1.00;;;;;;;;;;4818977;29;20061;-80
2023/12/22 09:21:00;;;;;;;6.97;0.82;;;;;;;;;;4837332;29;20090;-80
2023/12/22 09:23:26;;;;;;;4.72;1.10;;;;;;;;;;4834869;29;20129;-80
2023/12/22 09:25:52;;;;;;;3.45;1.00;;;;;;;;;;4837404;29;20076;-80
2023/12/22 09:28:18;;;;;;;4.80;1.00;;;;;;;;;;4849758;29;20500;-79
2023/12/22 09:30:44;;;;;;;3.92;1.10;;;;;;;;;;4840864;29;20050;-80
2023/12/22 09:33:10;;;;;;;2.78;0.93;;;;;;;;;;4839377;29;20046;-80
2023/12/22 09:35:36;;;;;;;2.10;0.60;;;;;;;;;;4838012;29;20050;-81
2023/12/22 09:38:03;;;;;;;2.22;0.80;;;;;;;;;;4838515;29;20140;-81
2023/12/22 09:40:30;;;;;;;7.07;1.25;;;;;;;;;;4839757;29;20057;-80
2023/12/22 09:42:58;;;;;;;4.35;1.50;;;;;;;;;;4839466;29;20133;-82
2023/12/22 09:45:24;;;;;;;6.40;1.10;;;;;;;;;;4835026;29;20538;-80
2023/12/22 09:47:51;;;;;;;6.95;1.10;;;;;;;;;;4821795;29;20054;-82
2023/12/22 09:50:18;;;;;;;5.40;1.10;;;;;;;;;;4821380;29;20501;-83
2023/12/22 09:52:45;;;;;;;2.17;0.90;;;;;;;;;;4820688;29;20133;-83
2023/12/22 09:55:12;;;;;;;3.50;0.93;;;;;;;;;;4805950;29;20042;-85
2023/12/22 09:57:39;;;;;;;6.18;1.20;;;;;;;;;;4823877;29;20053;-85
2023/12/22 10:00:08;;;;;;;4.07;1.00;;;;;;;;;;4839241;29;20202;-85
2023/12/22 10:02:35;;;;;;;4.07;1.42;;;;;;;;;;4837467;29;20100;-85
2023/12/22 10:05:01;;;;;;;8.35;1.70;;;;;;;;;;4839751;29;20060;-82
2023/12/22 10:07:27;;;;;;;7.30;1.20;;;;;;;;;;4838327;29;20089;-83
2023/12/22 10:09:55;;;;;;;6.07;1.38;;;;;;;;;;4838814;29;20065;-82
2023/12/22 10:12:21;;;;;;;7.50;1.55;;;;;;;;;;4838961;29;20053;-81
2023/12/22 10:14:48;;;;;;;4.05;1.23;;;;;;;;;;4839228;29;20090;-81
2023/12/22 10:17:17;;;;;;;6.00;2.10;;;;;;;;;;4838389;29;20053;-80
2023/12/22 10:19:43;;;;;;;8.52;1.55;;;;;;;;;;4839249;29;20053;-80
2023/12/22 10:22:09;;;;;;;7.47;1.80;;;;;;;;;;4837448;29;20064;-80
2023/12/22 10:24:39;;;;;;;6.85;2.03;;;;;;;;;;4839276;29;20458;-81
2023/12/22 10:27:05;;;;;;;5.30;1.50;;;;;;;;;;4839123;29;20068;-80
2023/12/22 10:29:32;;;;;;;8.60;1.80;;;;;;;;;;4839625;29;20149;-81
2023/12/22 10:31:58;;;;;;;10.30;2.25;;;;;;;;;;4838105;29;20050;-79
2023/12/22 10:34:24;;;;;;;10.68;1.60;;;;;;;;;;4838142;29;20083;-80
2023/12/22 10:36:50;;;;;;;9.77;2.00;;;;;;;;;;4837043;29;20447;-80
2023/12/22 10:39:16;;;;;;;9.07;2.28;;;;;;;;;;4839138;29;20062;-80
2023/12/22 10:41:42;;;;;;;7.70;1.73;;;;;;;;;;4839701;29;20060;-81
2023/12/22 10:44:08;;;;;;;7.53;1.55;;;;;;;;;;4838012;29;20050;-81
2023/12/22 10:46:35;;;;;;;10.82;1.77;;;;;;;;;;4838681;29;20056;-81
2023/12/22 10:49:02;;;;;;;7.45;1.80;;;;;;;;;;4838842;29;20053;-81
2023/12/22 10:51:33;;;;;;;8.63;1.75;;;;;;;;;;4838420;29;20068;-82
2023/12/22 10:53:59;;;;;;;7.20;1.70;;;;;;;;;;4837016;29;20050;-82
2023/12/22 10:56:26;;;;;;;8.77;1.63;;;;;;;;;;4838969;29;20045;-82
2023/12/22 10:58:52;;;;;;;7.45;1.60;;;;;;;;;;4836658;29;20076;-82
2023/12/22 11:01:21;;;;;;;9.80;1.73;;;;;;;;;;4839092;29;20469;-83
2023/12/22 11:03:49;;;;;;;6.95;1.33;;;;;;;;;;4837760;29;20128;-82
2023/12/22 11:06:16;;;;;;;10.55;1.83;;;;;;;;;;4839079;29;20130;-81
2023/12/22 11:08:43;;;;;;;12.35;2.17;;;;;;;;;;4836981;29;20694;-81
2023/12/22 11:11:23;;;;;;;3.63;1.00;;;;;;;;;;4838809;29;20061;-81
2023/12/22 11:13:51;;;;;;;6.38;1.48;;;;;;;;;;4837093;29;20049;-82
2023/12/22 11:16:18;;;;;;;4.63;1.10;;;;;;;;;;4835916;29;20089;-82
2023/12/22 11:18:44;;;;;;;5.93;1.10;;;;;;;;;;4835080;29;20475;-81
2023/12/22 11:21:10;;;;;;;5.80;1.25;;;;;;;;;;4838289;29;20050;-82
2023/12/22 11:23:37;;;;;;;5.10;1.23;;;;;;;;;;4835860;29;20050;-81
2023/12/22 11:26:04;;;;;;;4.93;1.30;;;;;;;;;;4851271;29;20049;-82
2023/12/22 11:28:33;;;;;;;4.22;1.15;;;;;;;;;;4855296;29;20496;-82
2023/12/22 11:31:00;;;;;;;3.88;1.08;;;;;;;;;;4835878;29;20577;-82
2023/12/22 11:33:27;;;;;;;5.57;1.63;;;;;;;;;;4837303;29;20045;-81
2023/12/22 11:35:55;;;;;;;7.53;1.20;;;;;;;;;;4838211;29;20118;-82
2023/12/22 11:38:21;;;;;;;4.10;0.77;;;;;;;;;;4837180;29;20054;-79
2023/12/22 11:40:49;;;;;;;5.18;1.40;;;;;;;;;;4836033;29;20061;-79
2023/12/22 11:43:16;;;;;;;5.97;1.17;;;;;;;;;;4852030;29;20148;-79
2023/12/22 11:45:43;;;;;;;4.30;0.90;;;;;;;;;;4837553;29;20058;-79
2023/12/22 11:48:09;;;;;;;3.95;1.00;;;;;;;;;;4836102;29;20129;-79
2023/12/22 11:50:36;;;;;;;5.55;1.40;;;;;;;;;;4836747;29;20573;-80
2023/12/22 11:53:20;;;;;;;2.90;0.93;;;;;;;;;;4837315;29;20060;-79
2023/12/22 11:56:07;;;;;;;3.88;0.88;;;;;;;;;;4836032;29;20065;-79
2023/12/22 11:58:50;;;;;;;6.38;1.20;;;;;;;;;;4836126;29;20055;-80
2023/12/22 12:01:17;;;;;;;6.07;1.10;;;;;;;;;;4834311;29;20069;-80
2023/12/22 12:03:54;;;;;;;7.20;1.27;;;;;;;;;;4837568;29;20061;-80
2023/12/22 12:06:31;;;;;;;3.08;1.00;;;;;;;;;;4851866;29;20084;-81
2023/12/22 12:08:58;;;;;;;4.90;1.35;;;;;;;;;;4836250;29;20140;-80
2023/12/22 12:11:24;;;;;;;5.05;1.17;;;;;;;;;;4832472;29;20085;-80
2023/12/22 12:13:51;;;;;;;4.75;1.15;;;;;;;;;;4818958;29;20080;-80
2023/12/22 12:16:23;;;;;;;7.63;1.33;;;;;;;;;;4819723;29;20054;-80
2023/12/22 12:18:52;;;;;;;6.07;1.33;;;;;;;;;;4817603;29;20054;-81
2023/12/22 12:21:18;;;;;;;4.82;1.48;;;;;;;;;;4818555;29;20094;-80
2023/12/22 12:23:44;;;;;;;8.70;1.67;;;;;;;;;;4817912;29;20086;-78
2023/12/22 12:26:12;;;;;;;13.65;1.50;;;;;;;;;;4824174;29;20054;-80
2023/12/22 12:28:38;;;;;;;8.43;1.83;;;;;;;;;;4836116;29;20057;-81
2023/12/22 12:31:08;;;;;;;3.63;1.20;;;;;;;;;;4835721;29;20148;-80
2023/12/22 12:33:36;;;;;;;4.38;1.48;;;;;;;;;;4837354;29;20045;-80
2023/12/22 12:36:05;;;;;;;7.00;1.08;;;;;;;;;;4832085;29;20057;-81
2023/12/22 12:38:34;;;;;;;9.55;1.25;;;;;;;;;;4820033;29;20107;-80
2023/12/22 12:41:00;;;;;;;5.15;1.27;;;;;;;;;;4837408;29;20221;-79
2023/12/22 12:43:26;;;;;;;6.10;1.00;;;;;;;;;;4835467;29;20408;-80
2023/12/22 12:45:52;;;;;;;7.97;1.35;;;;;;;;;;4835748;29;20054;-81
2023/12/22 12:48:18;;;;;;;6.28;1.33;;;;;;;;;;4819813;29;20059;-81
2023/12/22 12:50:44;;;;;;;5.75;1.35;;;;;;;;;;4827632;29;20070;-81
2023/12/22 12:53:11;;;;;;;5.20;1.50;;;;;;;;;;4832768;29;20045;-81
2023/12/22 12:55:37;;;;;;;6.80;1.50;;;;;;;;;;4835248;29;20062;-80
2023/12/22 12:58:04;;;;;;;6.10;1.88;;;;;;;;;;4818244;29;20069;-81
2023/12/22 13:00:36;;;;;;;8.43;1.73;;;;;;;;;;4837783;29;20129;-81
2023/12/22 13:03:04;;;;;;;6.38;1.55;;;;;;;;;;4838957;29;20045;-81
2023/12/22 13:05:30;;;;;;;7.53;1.80;;;;;;;;;;4837728;29;20062;-81
2023/12/22 13:08:10;;;;;;;5.20;1.25;;;;;;;;;;4836223;29;20145;-80
2023/12/22 13:10:37;;;;;;;9.07;1.45;;;;;;;;;;4819570;29;20050;-80
2023/12/22 13:13:03;;;;;;;7.93;2.10;;;;;;;;;;4829946;29;20096;-80
2023/12/22 13:15:29;;;;;;;7.00;1.10;;;;;;;;;;4839301;29;20049;-80
2023/12/22 13:17:56;;;;;;;10.07;1.63;;;;;;;;;;4838506;29;20053;-82
2023/12/22 13:20:22;;;;;;;5.95;1.50;;;;;;;;;;4840617;29;20136;-80
2023/12/22 13:22:48;;;;;;;6.38;1.10;;;;;;;;;;4839405;29;20049;-80
2023/12/22 13:25:14;;;;;;;5.53;1.20;;;;;;;;;;4824095;29;20054;-79
2023/12/22 13:27:47;;;;;;;5.50;1.27;;;;;;;;;;4821734;29;20054;-81
2023/12/22 13:30:14;;;;;;;6.78;0.98;;;;;;;;;;4827517;29;20045;-81
2023/12/22 13:32:40;;;;;;;7.05;1.40;;;;;;;;;;4827880;29;20476;-81
2023/12/22 13:35:06;;;;;;;6.88;1.10;;;;;;;;;;4823132;29;20064;-78
2023/12/22 13:37:32;;;;;;;5.43;1.15;;;;;;;;;;4821583;29;20118;-80
2023/12/22 13:39:59;;;;;;;9.63;1.38;;;;;;;;;;4821639;29;20066;-81
2023/12/22 13:42:25;;;;;;;5.53;0.88;;;;;;;;;;4832295;29;20061;-82
2023/12/22 13:44:52;;;;;;;8.93;1.63;;;;;;;;;;4839033;29;20054;-81
2023/12/22 13:47:18;;;;;;;5.47;1.50;;;;;;;;;;4838828;29;20424;-82
2023/12/22 13:49:45;;;;;;;7.30;1.38;;;;;;;;;;4838776;29;20046;-81
2023/12/22 13:52:32;;;;;;;4.65;1.00;;;;;;;;;;4838096;29;20106;-80
2023/12/22 13:55:00;;;;;;;11.43;1.30;;;;;;;;;;4840484;29;20125;-80
2023/12/22 13:57:26;;;;;;;7.38;1.42;;;;;;;;;;4838374;29;20054;-80
2023/12/22 13:59:54;;;;;;;8.38;1.42;;;;;;;;;;4838198;29;20062;-79
2023/12/22 14:02:22;;;;;;;9.85;1.48;;;;;;;;;;4840332;29;20085;-80
2023/12/22 14:04:49;;;;;;;3.78;1.20;;;;;;;;;;4840150;29;20057;-80
2023/12/22 14:07:15;;;;;;;8.68;1.52;;;;;;;;;;4842703;29;20499;-79
2023/12/22 14:09:41;;;;;;;7.95;1.55;;;;;;;;;;4847833;29;20054;-79
2023/12/22 14:12:07;;;;;;;4.95;1.17;;;;;;;;;;4838056;29;20081;-79
2023/12/22 14:14:33;;;;;;;9.65;1.70;;;;;;;;;;4839466;29;20511;-79
2023/12/22 14:16:59;;;;;;;2.95;1.20;;;;;;;;;;4839358;29;20092;-79
2023/12/22 14:19:25;;;;;;;4.88;1.65;;;;;;;;;;4835221;29;20212;-79
2023/12/22 14:21:51;;;;;;;6.43;1.55;;;;;;;;;;4836600;29;20050;-78
2023/12/22 14:24:17;;;;;;;4.20;0.80;;;;;;;;;;4839333;29;20128;-79
2023/12/22 14:26:53;;;;;;;5.93;1.20;;;;;;;;;;4838422;29;20046;-79
2023/12/22 14:29:19;;;;;;;2.53;0.68;;;;;;;;;;4839464;29;20054;-79
2023/12/22 14:31:45;;;;;;;4.60;0.88;;;;;;;;;;4838604;29;20393;-80
2023/12/22 14:34:13;;;;;;;1.77;0.82;;;;;;;;;;4839157;29;20058;-79